Terminal Aerodrome Forecast
Issued by NWS

Home | Current Version | Previous Version | Text Only | Print | Product List | Glossary On
Versions: 1 2 3 4 5 6 7 8 9 10 11 12 13 14 15
984
FTUS45 KVEF 191120
TAFBIH
TAF
KBIH 191120Z 1912/2012 36017G27KT P6SM BKN120
     FM191500 36020G30KT P6SM SCT060 BKN100
     FM192100 34023G33KT P6SM SCT060 BKN100
     FM200400 35016G26KT P6SM FEW060 SCT100=

USA.gov is the U.S. government's official web portal to all federal, state and local government web resources and services.